Time;durP1;ratioP1;P1;durP2;ratioP2;P2;SDS_P1;SDS_P2;PMS_P1;PMS_P2;Temp;Humidity;BMP_temperature;BMP_pressure;BME280_temperature;BME280_humidity;BME280_pressure;Samples;Min_cycle;Max_cycle;Signal;HPM_P1;HPM_P2
2022/07/02 00:00:15;;;;;;;;;;;;;;;;;;5079516;28;42920;-79
2022/07/02 00:02:42;;;;;;;;;;;;;;;;;;5088221;28;46404;-79
2022/07/02 00:05:08;;;;;;;;;;;;;;;;;;5082192;28;47036;-82
2022/07/02 00:07:34;;;;;;;;;;;;;;;;;;5086612;28;42909;-83
2022/07/02 00:10:01;;;;;;;;;;;;;;;;;;5088912;28;45387;-82
2022/07/02 00:12:27;;;;;;;;;;;;;;;;;;5088819;28;45190;-82
2022/07/02 00:14:53;;;;;;;;;;;;;;;;;;5085130;28;43747;-82
2022/07/02 00:17:19;;;;;;;;;;;;;;;;;;5086849;28;47342;-81
2022/07/02 00:19:46;;;;;;;;;;;;;;;;;;5085752;28;43912;-83
2022/07/02 00:22:12;;;;;;;;;;;;;;;;;;5080924;28;47684;-79
2022/07/02 00:24:40;;;;;;;;;;;;;;;;;;5085140;28;46906;-80
2022/07/02 00:27:07;;;;;;;;;;;;;;;;;;5087834;28;43205;-83
2022/07/02 00:29:34;;;;;;;;;;;;;;;;;;5088489;28;46626;-83
2022/07/02 00:32:00;;;;;;;;;;;;;;;;;;5086161;28;44216;-81
2022/07/02 00:34:27;;;;;;;;;;;;;;;;;;5086086;28;42122;-79
2022/07/02 00:36:53;;;;;;;;;;;;;;;;;;5087130;28;48237;-82
2022/07/02 00:39:19;;;;;;;;;;;;;;;;;;5085282;28;43723;-78
2022/07/02 00:41:45;;;;;;;;;;;;;;;;;;5086208;28;46375;-78
2022/07/02 00:44:12;;;;;;;;;;;;;;;;;;5082830;28;46353;-79
2022/07/02 00:46:38;;;;;;;;;;;;;;;;;;5086296;28;44725;-81
2022/07/02 00:49:04;;;;;;;;;;;;;;;;;;5088185;28;45757;-80
2022/07/02 00:51:30;;;;;;;;;;;;;;;;;;5084472;28;44914;-84
2022/07/02 00:53:57;;;;;;;;;;;;;;;;;;5086420;28;42747;-83
2022/07/02 00:56:23;;;;;;;;;;;;;;;;;;5085109;28;44210;-82
2022/07/02 00:58:49;;;;;;;;;;;;;;;;;;5081786;28;45879;-80
2022/07/02 01:01:15;;;;;;;;;;;;;;;;;;5084146;28;46384;-80
2022/07/02 01:03:42;;;;;;;;;;;;;;;;;;5084635;28;47315;-79
2022/07/02 01:06:08;;;;;;;;;;;;;;;;;;5083157;28;41566;-80
2022/07/02 01:11:20;;;;;;;;;;;;;;;;;;5083025;28;45435;-82
2022/07/02 01:13:46;;;;;;;;;;;;;;;;;;5086315;28;44906;-81
2022/07/02 01:16:12;;;;;;;;;;;;;;;;;;5089554;28;43677;-82
2022/07/02 01:18:39;;;;;;;;;;;;;;;;;;5086294;28;48157;-80
2022/07/02 01:21:05;;;;;;;;;;;;;;;;;;5088811;28;42022;-80
2022/07/02 01:23:31;;;;;;;;;;;;;;;;;;5092588;28;44728;-83
2022/07/02 01:25:57;;;;;;;;;;;;;;;;;;5090282;28;43596;-83
2022/07/02 01:28:24;;;;;;;;;;;;;;;;;;5092670;28;46431;-80
2022/07/02 01:30:50;;;;;;;;;;;;;;;;;;5090671;28;48121;-80
2022/07/02 01:33:16;;;;;;;;;;;;;;;;;;5085193;28;41336;-82
2022/07/02 01:35:42;;;;;;;;;;;;;;;;;;5086826;28;46356;-80
2022/07/02 01:38:09;;;;;;;;;;;;;;;;;;5088316;28;47019;-80
2022/07/02 01:40:36;;;;;;;;;;;;;;;;;;5088655;28;44034;-83
2022/07/02 01:43:02;;;;;;;;;;;;;;;;;;5089496;28;44633;-80
2022/07/02 01:45:28;;;;;;;;;;;;;;;;;;5084936;28;41937;-80
2022/07/02 01:47:55;;;;;;;;;;;;;;;;;;5088948;28;43726;-81
2022/07/02 01:50:21;;;;;;;;;;;;;;;;;;5089454;28;48087;-80
2022/07/02 01:52:51;;;;;;;;;;;;;;;;;;5090847;28;45561;-80
2022/07/02 01:55:17;;;;;;;;;;;;;;;;;;5086817;28;46076;-80
2022/07/02 01:57:43;;;;;;;;;;;;;;;;;;5089454;28;46380;-81
2022/07/02 02:00:10;;;;;;;;;;;;;;;;;;5083766;28;43071;-81
2022/07/02 02:02:36;;;;;;;;;;;;;;;;;;5087948;28;46868;-83
2022/07/02 02:05:02;;;;;;;;;;;;;;;;;;5088742;28;46928;-80
2022/07/02 02:07:29;;;;;;;;;;;;;;;;;;5089431;28;47429;-82
2022/07/02 02:09:55;;;;;;;;;;;;;;;;;;5086658;28;47136;-80
2022/07/02 02:12:22;;;;;;;;;;;;;;;;;;5088803;28;42907;-80
2022/07/02 02:14:49;;;;;;;;;;;;;;;;;;5086907;28;45346;-80
2022/07/02 02:17:15;;;;;;;;;;;;;;;;;;5086035;28;47227;-82
2022/07/02 02:19:41;;;;;;;;;;;;;;;;;;5079790;28;44587;-82
2022/07/02 02:22:07;;;;;;;;;;;;;;;;;;5086327;28;47419;-83
2022/07/02 02:24:34;;;;;;;;;;;;;;;;;;5087679;28;48532;-80
2022/07/02 02:27:00;;;;;;;;;;;;;;;;;;5081249;28;42861;-80
2022/07/02 02:29:28;;;;;;;;;;;;;;;;;;5089742;28;46571;-81
2022/07/02 02:31:54;;;;;;;;;;;;;;;;;;5087678;28;44746;-82
2022/07/02 02:34:21;;;;;;;;;;;;;;;;;;5088779;28;45372;-80
2022/07/02 02:36:47;;;;;;;;;;;;;;;;;;5085946;28;46902;-81
2022/07/02 02:39:14;;;;;;;;;;;;;;;;;;5091014;28;44473;-80
2022/07/02 02:41:40;;;;;;;;;;;;;;;;;;5086462;28;45039;-80
2022/07/02 02:44:06;;;;;;;;;;;;;;;;;;5088451;28;48222;-82
2022/07/02 02:46:34;;;;;;;;;;;;;;;;;;5088133;28;43950;-79
2022/07/02 02:49:00;;;;;;;;;;;;;;;;;;5088186;28;48098;-79
2022/07/02 02:51:27;;;;;;;;;;;;;;;;;;5084980;28;43742;-82
2022/07/02 02:53:53;;;;;;;;;;;;;;;;;;5084914;28;48414;-82
2022/07/02 02:56:19;;;;;;;;;;;;;;;;;;5088532;28;45790;-81
2022/07/02 02:58:46;;;;;;;;;;;;;;;;;;5082072;28;43737;-80
2022/07/02 03:01:12;;;;;;;;;;;;;;;;;;5080096;28;46684;-80
2022/07/02 03:03:38;;;;;;;;;;;;;;;;;;5085696;28;47312;-80
2022/07/02 03:06:05;;;;;;;;;;;;;;;;;;5087162;28;45871;-79
2022/07/02 03:08:32;;;;;;;;;;;;;;;;;;5083885;28;47478;-82
2022/07/02 03:10:58;;;;;;;;;;;;;;;;;;5077477;28;43735;-78
2022/07/02 03:13:24;;;;;;;;;;;;;;;;;;5085642;28;46395;-81
2022/07/02 03:15:52;;;;;;;;;;;;;;;;;;5088731;28;48202;-82
2022/07/02 03:18:19;;;;;;;;;;;;;;;;;;5092312;28;42308;-84
2022/07/02 03:20:51;;;;;;;;;;;;;;;;;;5091519;28;46755;-81
2022/07/02 03:23:18;;;;;;;;;;;;;;;;;;5090707;28;48733;-80
2022/07/02 03:25:44;;;;;;;;;;;;;;;;;;5094983;28;45935;-81
2022/07/02 03:28:10;;;;;;;;;;;;;;;;;;5091287;28;47508;-82
2022/07/02 03:30:37;;;;;;;;;;;;;;;;;;5094187;28;45393;-83
2022/07/02 03:33:03;;;;;;;;;;;;;;;;;;5094031;28;44502;-83
2022/07/02 03:35:29;;;;;;;;;;;;;;;;;;5085653;28;45570;-80
2022/07/02 03:37:56;;;;;;;;;;;;;;;;;;5087279;28;43686;-79
2022/07/02 03:40:22;;;;;;;;;;;;;;;;;;5087228;28;46661;-80
2022/07/02 03:42:48;;;;;;;;;;;;;;;;;;5084235;28;46877;-78
2022/07/02 03:45:15;;;;;;;;;;;;;;;;;;5083757;28;42048;-79
2022/07/02 03:47:41;;;;;;;;;;;;;;;;;;5080708;28;47829;-80
2022/07/02 03:50:07;;;;;;;;;;;;;;;;;;5084886;28;46996;-79
2022/07/02 03:52:34;;;;;;;;;;;;;;;;;;5083336;28;45322;-80
2022/07/02 03:55:01;;;;;;;;;;;;;;;;;;5086523;28;46495;-82
2022/07/02 03:57:27;;;;;;;;;;;;;;;;;;5087673;28;43721;-82
2022/07/02 03:59:53;;;;;;;;;;;;;;;;;;5086850;28;44434;-80
2022/07/02 04:02:19;;;;;;;;;;;;;;;;;;5080571;28;46837;-80
2022/07/02 04:04:46;;;;;;;;;;;;;;;;;;5087659;28;43797;-83
2022/07/02 04:07:12;;;;;;;;;;;;;;;;;;5086010;28;45153;-80
2022/07/02 04:09:39;;;;;;;;;;;;;;;;;;5089753;28;45953;-82
2022/07/02 04:12:05;;;;;;;;;;;;;;;;;;5087187;28;43533;-82
2022/07/02 04:14:31;;;;;;;;;;;;;;;;;;5083716;28;46429;-82
2022/07/02 04:16:58;;;;;;;;;;;;;;;;;;5083894;28;42656;-80
2022/07/02 04:19:24;;;;;;;;;;;;;;;;;;5077356;28;44566;-82
2022/07/02 04:21:50;;;;;;;;;;;;;;;;;;5086355;28;48030;-80
2022/07/02 04:24:16;;;;;;;;;;;;;;;;;;5087282;28;43184;-81
2022/07/02 04:26:43;;;;;;;;;;;;;;;;;;5084597;28;46443;-82
2022/07/02 04:29:09;;;;;;;;;;;;;;;;;;5089521;28;46706;-80
2022/07/02 04:31:35;;;;;;;;;;;;;;;;;;5089255;28;44681;-80
2022/07/02 04:34:02;;;;;;;;;;;;;;;;;;5090753;28;44696;-80
2022/07/02 04:36:28;;;;;;;;;;;;;;;;;;5076997;28;34857;-82
2022/07/02 04:38:54;;;;;;;;;;;;;;;;;;5085476;28;47504;-82
2022/07/02 04:41:21;;;;;;;;;;;;;;;;;;5081590;28;47307;-81
2022/07/02 04:43:47;;;;;;;;;;;;;;;;;;5079994;28;44374;-80
2022/07/02 04:46:13;;;;;;;;;;;;;;;;;;5079887;28;47950;-81
2022/07/02 04:48:39;;;;;;;;;;;;;;;;;;5081201;28;45379;-79
2022/07/02 04:51:06;;;;;;;;;;;;;;;;;;5081966;28;43185;-79
2022/07/02 04:53:32;;;;;;;;;;;;;;;;;;5076489;28;46043;-80
2022/07/02 04:55:58;;;;;;;;;;;;;;;;;;5082502;28;45260;-79
2022/07/02 04:58:25;;;;;;;;;;;;;;;;;;5083399;28;43361;-79
2022/07/02 05:00:51;;;;;;;;;;;;;;;;;;5077217;28;50184;-80
2022/07/02 05:03:17;;;;;;;;;;;;;;;;;;5080483;28;41242;-79
2022/07/02 05:05:44;;;;;;;;;;;;;;;;;;5081938;28;46433;-82
2022/07/02 05:08:10;;;;;;;;;;;;;;;;;;5082165;28;45437;-82
2022/07/02 05:10:36;;;;;;;;;;;;;;;;;;5079614;28;43245;-83
2022/07/02 05:13:04;;;;;;;;;;;;;;;;;;5081157;28;47230;-79
2022/07/02 05:15:30;;;;;;;;;;;;;;;;;;5080907;28;46771;-83
2022/07/02 05:17:57;;;;;;;;;;;;;;;;;;5080597;28;43742;-79
2022/07/02 05:20:23;;;;;;;;;;;;;;;;;;5077350;28;45592;-83
2022/07/02 05:22:49;;;;;;;;;;;;;;;;;;5079235;28;44701;-79
2022/07/02 05:25:15;;;;;;;;;;;;;;;;;;5078399;28;47842;-81
2022/07/02 05:27:42;;;;;;;;;;;;;;;;;;5069873;28;51579;-79
2022/07/02 05:30:08;;;;;;;;;;;;;;;;;;5074187;28;44993;-83
2022/07/02 05:32:34;;;;;;;;;;;;;;;;;;5080497;28;45402;-78
2022/07/02 05:35:00;;;;;;;;;;;;;;;;;;5081492;28;47163;-78
2022/07/02 05:37:27;;;;;;;;;;;;;;;;;;5080305;28;43723;-80
2022/07/02 05:39:53;;;;;;;;;;;;;;;;;;5078824;28;47107;-82
2022/07/02 05:42:19;;;;;;;;;;;;;;;;;;5082960;28;42092;-80
2022/07/02 05:44:45;;;;;;;;;;;;;;;;;;5081658;28;46298;-80
2022/07/02 05:47:12;;;;;;;;;;;;;;;;;;5081108;28;46747;-84
2022/07/02 05:49:38;;;;;;;;;;;;;;;;;;5081908;28;43763;-83
2022/07/02 05:52:04;;;;;;;;;;;;;;;;;;5078964;28;47377;-81
2022/07/02 05:54:31;;;;;;;;;;;;;;;;;;5079510;28;44149;-80
2022/07/02 05:56:57;;;;;;;;;;;;;;;;;;5076137;28;42008;-80
2022/07/02 05:59:23;;;;;;;;;;;;;;;;;;5075338;28;46738;-83
2022/07/02 06:01:49;;;;;;;;;;;;;;;;;;5081510;28;45606;-80
2022/07/02 06:04:16;;;;;;;;;;;;;;;;;;5081222;28;46728;-79
2022/07/02 06:09:27;;;;;;;;;;;;;;;;;;5085847;28;46853;-83
2022/07/02 06:11:54;;;;;;;;;;;;;;;;;;5089607;28;45068;-81
2022/07/02 06:14:20;;;;;;;;;;;;;;;;;;5088317;28;47226;-79
2022/07/02 06:16:46;;;;;;;;;;;;;;;;;;5076291;28;42301;-82
2022/07/02 06:19:13;;;;;;;;;;;;;;;;;;5081542;28;44494;-79
2022/07/02 06:21:39;;;;;;;;;;;;;;;;;;5083033;28;46820;-80
2022/07/02 06:24:05;;;;;;;;;;;;;;;;;;5089415;28;43497;-79
2022/07/02 06:26:32;;;;;;;;;;;;;;;;;;5084469;28;47011;-80
2022/07/02 06:28:58;;;;;;;;;;;;;;;;;;5079967;28;45012;-83
2022/07/02 06:31:24;;;;;;;;;;;;;;;;;;5075806;28;48268;-82
2022/07/02 06:33:50;;;;;;;;;;;;;;;;;;5081439;28;45673;-81
2022/07/02 06:36:21;;;;;;;;;;;;;;;;;;5079277;28;44661;-80
2022/07/02 06:38:47;;;;;;;;;;;;;;;;;;5086690;28;46003;-80
2022/07/02 06:43:59;;;;;;;;;;;;;;;;;;5072110;28;43323;-85
2022/07/02 06:46:25;;;;;;;;;;;;;;;;;;5088081;28;47015;-84
2022/07/02 06:48:51;;;;;;;;;;;;;;;;;;5077141;28;44752;-82
2022/07/02 06:51:18;;;;;;;;;;;;;;;;;;5085009;28;45930;-81
2022/07/02 06:53:44;;;;;;;;;;;;;;;;;;5085612;28;48444;-83
2022/07/02 06:56:10;;;;;;;;;;;;;;;;;;5081493;28;43625;-79
2022/07/02 06:58:36;;;;;;;;;;;;;;;;;;5078511;28;47551;-84
2022/07/02 07:01:03;;;;;;;;;;;;;;;;;;5066995;28;46044;-82
2022/07/02 07:03:29;;;;;;;;;;;;;;;;;;5081003;28;43713;-80
2022/07/02 07:05:55;;;;;;;;;;;;;;;;;;5082822;28;48167;-80
2022/07/02 07:08:21;;;;;;;;;;;;;;;;;;5075631;28;43851;-82
2022/07/02 07:10:48;;;;;;;;;;;;;;;;;;5082818;28;49666;-84
2022/07/02 07:13:14;;;;;;;;;;;;;;;;;;5083104;28;46996;-79
2022/07/02 07:15:40;;;;;;;;;;;;;;;;;;5080048;28;41744;-80
2022/07/02 07:18:07;;;;;;;;;;;;;;;;;;5089955;28;44457;-81
2022/07/02 07:20:36;;;;;;;;;;;;;;;;;;5085889;28;46910;-85
2022/07/02 07:23:05;;;;;;;;;;;;;;;;;;5086199;28;42333;-86
2022/07/02 07:25:33;;;;;;;;;;;;;;;;;;5096413;28;46639;-85
2022/07/02 07:28:00;;;;;;;;;;;;;;;;;;5098769;28;48791;-83
2022/07/02 07:30:30;;;;;;;;;;;;;;;;;;5088427;28;45139;-83
2022/07/02 07:33:05;;;;;;;;;;;;;;;;;;5101764;28;48974;-86
2022/07/02 07:35:34;;;;;;;;;;;;;;;;;;5097399;28;41184;-85
2022/07/02 07:38:02;;;;;;;;;;;;;;;;;;5098785;28;45041;-85
2022/07/02 07:40:32;;;;;;;;;;;;;;;;;;5100557;28;45504;-86
2022/07/02 07:42:58;;;;;;;;;;;;;;;;;;5100566;28;41940;-87
2022/07/02 07:45:24;;;;;;;;;;;;;;;;;;5100901;28;47844;-85
2022/07/02 07:47:51;;;;;;;;;;;;;;;;;;5098162;28;45368;-82
2022/07/02 07:50:18;;;;;;;;;;;;;;;;;;5101498;28;40877;-86
2022/07/02 07:52:44;;;;;;;;;;;;;;;;;;5098306;28;45646;-84
2022/07/02 07:55:10;;;;;;;;;;;;;;;;;;5099846;28;45673;-87
2022/07/02 07:57:37;;;;;;;;;;;;;;;;;;5096380;28;46125;-87
2022/07/02 08:00:03;;;;;;;;;;;;;;;;;;5092910;28;45538;-87
2022/07/02 08:02:29;;;;;;;;;;;;;;;;;;5099338;28;42520;-84
2022/07/02 08:05:00;;;;;;;;;;;;;;;;;;5097205;28;48462;-82
2022/07/02 08:07:27;;;;;;;;;;;;;;;;;;5098452;28;45258;-87
2022/07/02 08:09:54;;;;;;;;;;;;;;;;;;5094988;28;43400;-86
2022/07/02 08:12:20;;;;;;;;;;;;;;;;;;5079248;28;49352;-84
2022/07/02 08:14:46;;;;;;;;;;;;;;;;;;5079751;28;42471;-89
2022/07/02 08:17:13;;;;;;;;;;;;;;;;;;5089705;28;47488;-83
2022/07/02 08:19:39;;;;;;;;;;;;;;;;;;5096253;28;44877;-87
2022/07/02 08:22:05;;;;;;;;;;;;;;;;;;5099237;28;42717;-83
2022/07/02 08:24:31;;;;;;;;;;;;;;;;;;5097198;28;45179;-85
2022/07/02 08:26:59;;;;;;;;;;;;;;;;;;5096635;28;45495;-86
2022/07/02 08:29:45;;;;;;;;;;;;;;;;;;5099196;28;43018;-88
2022/07/02 08:32:35;;;;;;;;;;;;;;;;;;5070586;28;19924;-80
2022/07/02 08:35:23;;;;;;;;;;;;;;;;;;5063342;28;20329;-83
2022/07/02 08:38:28;;;;;;;;;;;;;;;;;;5077309;28;34434;-82
2022/07/02 08:41:13;;;;;;;;;;;;;;;;;;5074383;28;47875;-87
2022/07/02 08:44:12;;;;;;;;;;;;;;;;;;5076009;28;42631;-81
2022/07/02 08:47:22;;;;;;;;;;;;;;;;;;5078048;28;20556;-84
2022/07/02 08:50:06;;;;;;;;;;;;;;;;;;5075738;28;19933;-87
2022/07/02 08:52:57;;;;;;;;;;;;;;;;;;5072309;28;20513;-86
2022/07/02 08:55:23;;;;;;;;;;;;;;;;;;5076975;28;43488;-82
2022/07/02 08:57:50;;;;;;;;;;;;;;;;;;5075511;28;48654;-89
2022/07/02 09:00:16;;;;;;;;;;;;;;;;;;5071064;28;46637;-87
2022/07/02 09:02:43;;;;;;;;;;;;;;;;;;5074492;28;46911;-88
2022/07/02 09:05:09;;;;;;;;;;;;;;;;;;5077478;28;43369;-85
2022/07/02 09:07:36;;;;;;;;;;;;;;;;;;5075749;28;46836;-81
2022/07/02 09:10:12;;;;;;;;;;;;;;;;;;5064499;28;45972;-86
2022/07/02 09:12:39;;;;;;;;;;;;;;;;;;5076802;28;44920;-88
2022/07/02 09:15:05;;;;;;;;;;;;;;;;;;5076255;28;45010;-86
2022/07/02 09:17:31;;;;;;;;;;;;;;;;;;5079614;28;46222;-87
2022/07/02 09:19:58;;;;;;;;;;;;;;;;;;5076480;28;42934;-87
2022/07/02 09:22:24;;;;;;;;;;;;;;;;;;5076347;28;47193;-84
2022/07/02 09:24:50;;;;;;;;;;;;;;;;;;5070005;28;42406;-84
2022/07/02 09:27:17;;;;;;;;;;;;;;;;;;5067759;28;47740;-85
2022/07/02 09:29:43;;;;;;;;;;;;;;;;;;5073267;28;48064;-87
2022/07/02 09:32:10;;;;;;;;;;;;;;;;;;5083069;28;44714;-85
2022/07/02 09:34:36;;;;;;;;;;;;;;;;;;5083007;28;46052;-85
2022/07/02 09:37:03;;;;;;;;;;;;;;;;;;5079818;28;49212;-86
2022/07/02 09:39:31;;;;;;;;;;;;;;;;;;5081547;28;43579;-84
2022/07/02 09:41:58;;;;;;;;;;;;;;;;;;5073646;28;46381;-83
2022/07/02 09:44:25;;;;;;;;;;;;;;;;;;5080006;28;43730;-82
2022/07/02 09:46:52;;;;;;;;;;;;;;;;;;5079885;28;46338;-84
2022/07/02 09:49:18;;;;;;;;;;;;;;;;;;5079873;28;48614;-84
2022/07/02 09:51:44;;;;;;;;;;;;;;;;;;5076503;28;43759;-80
2022/07/02 09:54:11;;;;;;;;;;;;;;;;;;5077931;28;47118;-83
2022/07/02 09:56:37;;;;;;;;;;;;;;;;;;5075090;28;46989;-85
2022/07/02 09:59:03;;;;;;;;;;;;;;;;;;5066900;28;43235;-84
2022/07/02 10:01:30;;;;;;;;;;;;;;;;;;5060138;28;45032;-80
2022/07/02 10:03:56;;;;;;;;;;;;;;;;;;5062819;28;49564;-84
2022/07/02 10:06:23;;;;;;;;;;;;;;;;;;5067183;28;44995;-85
2022/07/02 10:08:51;;;;;;;;;;;;;;;;;;5077483;28;46366;-84
2022/07/02 10:11:18;;;;;;;;;;;;;;;;;;5077675;28;43752;-84
2022/07/02 10:13:44;;;;;;;;;;;;;;;;;;5074966;28;48535;-84
2022/07/02 10:16:11;;;;;;;;;;;;;;;;;;5069495;28;49060;-85
2022/07/02 10:18:37;;;;;;;;;;;;;;;;;;5081079;28;45517;-84
2022/07/02 10:21:04;;;;;;;;;;;;;;;;;;5080380;28;48010;-82
2022/07/02 10:23:30;;;;;;;;;;;;;;;;;;5077584;28;44848;-80
2022/07/02 10:25:57;;;;;;;;;;;;;;;;;;5078492;28;41154;-83
2022/07/02 10:28:24;;;;;;;;;;;;;;;;;;5076217;28;49837;-83
2022/07/02 10:30:50;;;;;;;;;;;;;;;;;;5079195;28;42262;-81
2022/07/02 10:33:17;;;;;;;;;;;;;;;;;;5067525;28;47440;-82
2022/07/02 10:35:43;;;;;;;;;;;;;;;;;;5069325;28;46252;-82
2022/07/02 10:38:09;;;;;;;;;;;;;;;;;;5071529;28;42450;-81
2022/07/02 10:40:35;;;;;;;;;;;;;;;;;;5070435;28;46272;-79
2022/07/02 10:43:02;;;;;;;;;;;;;;;;;;5067182;28;48477;-82
2022/07/02 10:45:29;;;;;;;;;;;;;;;;;;5066277;28;45440;-79
2022/07/02 10:47:55;;;;;;;;;;;;;;;;;;5068140;28;49097;-80
2022/07/02 10:50:21;;;;;;;;;;;;;;;;;;5064728;28;44094;-81
2022/07/02 10:52:52;;;;;;;;;;;;;;;;;;5076070;28;46819;-84
2022/07/02 10:55:19;;;;;;;;;;;;;;;;;;5080621;28;46618;-81
2022/07/02 10:57:45;;;;;;;;;;;;;;;;;;5077986;28;45203;-81
2022/07/02 11:00:15;;;;;;;;;;;;;;;;;;5080933;28;46167;-80
2022/07/02 11:02:41;;;;;;;;;;;;;;;;;;5079226;28;47928;-82
2022/07/02 11:05:07;;;;;;;;;;;;;;;;;;5076957;28;47025;-84
2022/07/02 11:07:34;;;;;;;;;;;;;;;;;;5060912;28;48952;-86
2022/07/02 11:10:01;;;;;;;;;;;;;;;;;;5061285;28;43719;-82
2022/07/02 11:12:27;;;;;;;;;;;;;;;;;;5071150;28;47484;-85
2022/07/02 11:14:53;;;;;;;;;;;;;;;;;;5079439;28;47623;-83
2022/07/02 11:17:40;;;;;;;;;;;;;;;;;;5079527;28;19931;-83
2022/07/02 11:20:06;;;;;;;;;;;;;;;;;;5077275;28;46646;-83
2022/07/02 11:22:32;;;;;;;;;;;;;;;;;;5075218;28;48616;-83
2022/07/02 11:24:58;;;;;;;;;;;;;;;;;;5057845;28;41658;-84
2022/07/02 11:27:25;;;;;;;;;;;;;;;;;;5068918;28;46441;-84
2022/07/02 11:29:51;;;;;;;;;;;;;;;;;;5076451;28;48290;-81
2022/07/02 11:32:17;;;;;;;;;;;;;;;;;;5074149;28;47319;-83
2022/07/02 11:34:43;;;;;;;;;;;;;;;;;;5076933;28;47230;-81
2022/07/02 11:37:10;;;;;;;;;;;;;;;;;;5077079;28;46211;-80
2022/07/02 11:39:36;;;;;;;;;;;;;;;;;;5070579;28;47485;-82
2022/07/02 11:42:02;;;;;;;;;;;;;;;;;;5073259;28;48376;-85
2022/07/02 11:44:29;;;;;;;;;;;;;;;;;;5075138;28;43615;-85
2022/07/02 11:46:56;;;;;;;;;;;;;;;;;;5073204;28;44521;-82
2022/07/02 11:49:22;;;;;;;;;;;;;;;;;;5072704;28;45250;-82
2022/07/02 11:51:48;;;;;;;;;;;;;;;;;;5074358;28;43222;-85
2022/07/02 11:54:15;;;;;;;;;;;;;;;;;;5075860;28;50073;-81
2022/07/02 11:56:41;;;;;;;;;;;;;;;;;;5067338;28;42250;-83
2022/07/02 11:59:12;;;;;;;;;;;;;;;;;;5073980;28;44550;-81
2022/07/02 12:01:39;;;;;;;;;;;;;;;;;;5072399;28;47667;-82
2022/07/02 12:04:08;;;;;;;;;;;;;;;;;;5059854;28;42474;-83
2022/07/02 12:06:34;;;;;;;;;;;;;;;;;;5066612;28;46915;-82
2022/07/02 12:09:00;;;;;;;;;;;;;;;;;;5067005;28;46939;-84
2022/07/02 12:11:27;;;;;;;;;;;;;;;;;;5061884;28;44647;-85
2022/07/02 12:13:53;;;;;;;;;;;;;;;;;;5068729;28;46237;-85
2022/07/02 12:16:19;;;;;;;;;;;;;;;;;;5064379;28;41727;-81
2022/07/02 12:18:46;;;;;;;;;;;;;;;;;;5072179;28;44760;-80
2022/07/02 12:21:12;;;;;;;;;;;;;;;;;;5069862;28;46966;-82
2022/07/02 12:23:38;;;;;;;;;;;;;;;;;;5063284;28;45386;-82
2022/07/02 12:26:04;;;;;;;;;;;;;;;;;;5052475;28;44586;-84
2022/07/02 12:31:16;;;;;;;;;;;;;;;;;;5067196;28;41814;-82
2022/07/02 12:33:42;;;;;;;;;;;;;;;;;;5074362;28;48353;-83
2022/07/02 12:36:08;;;;;;;;;;;;;;;;;;5072106;28;45725;-84
2022/07/02 12:38:34;;;;;;;;;;;;;;;;;;5073600;28;45867;-79
2022/07/02 12:41:04;;;;;;;;;;;;;;;;;;5067392;28;48814;-81
2022/07/02 12:43:31;;;;;;;;;;;;;;;;;;5072023;28;43717;-80
2022/07/02 12:45:57;;;;;;;;;;;;;;;;;;5061552;28;44274;-81
2022/07/02 12:48:24;;;;;;;;;;;;;;;;;;5051089;28;49640;-81
2022/07/02 12:50:51;;;;;;;;;;;;;;;;;;5062439;28;43656;-78
2022/07/02 12:53:18;;;;;;;;;;;;;;;;;;5058146;28;47752;-82
2022/07/02 12:55:44;;;;;;;;;;;;;;;;;;5062468;28;45234;-82
2022/07/02 12:58:10;;;;;;;;;;;;;;;;;;5063605;28;42080;-81
2022/07/02 13:00:39;;;;;;;;;;;;;;;;;;5061018;28;50138;-83
2022/07/02 13:03:06;;;;;;;;;;;;;;;;;;5061522;28;43631;-78
2022/07/02 13:05:32;;;;;;;;;;;;;;;;;;5055723;28;47412;-80
2022/07/02 13:07:58;;;;;;;;;;;;;;;;;;5044835;28;46541;-79
2022/07/02 13:10:24;;;;;;;;;;;;;;;;;;5052196;28;45599;-77
2022/07/02 13:12:51;;;;;;;;;;;;;;;;;;5060981;28;47440;-78
2022/07/02 13:15:17;;;;;;;;;;;;;;;;;;5064489;28;48295;-80
2022/07/02 13:17:44;;;;;;;;;;;;;;;;;;5060288;28;44591;-78
2022/07/02 13:20:16;;;;;;;;;;;;;;;;;;5066426;28;48484;-78
2022/07/02 13:22:48;;;;;;;;;;;;;;;;;;5054224;28;42438;-79
2022/07/02 13:25:15;;;;;;;;;;;;;;;;;;5053457;28;46421;-78
2022/07/02 13:27:42;;;;;;;;;;;;;;;;;;5060044;28;47806;-81
2022/07/02 13:30:08;;;;;;;;;;;;;;;;;;5046813;28;43953;-83
2022/07/02 13:32:34;;;;;;;;;;;;;;;;;;5061822;28;43271;-81
2022/07/02 13:35:00;;;;;;;;;;;;;;;;;;5060753;28;46111;-79
2022/07/02 13:37:27;;;;;;;;;;;;;;;;;;5064718;28;47077;-80
2022/07/02 13:39:53;;;;;;;;;;;;;;;;;;5052695;28;47616;-82
2022/07/02 13:42:20;;;;;;;;;;;;;;;;;;5046427;28;43723;-79
2022/07/02 13:44:46;;;;;;;;;;;;;;;;;;5061574;28;46465;-80
2022/07/02 13:47:12;;;;;;;;;;;;;;;;;;5077466;28;48112;-82
2022/07/02 13:49:38;;;;;;;;;;;;;;;;;;5078023;28;45105;-85
2022/07/02 13:52:05;;;;;;;;;;;;;;;;;;5081504;28;45294;-81
2022/07/02 13:54:31;;;;;;;;;;;;;;;;;;5076459;28;47997;-80
2022/07/02 13:56:57;;;;;;;;;;;;;;;;;;5066015;28;43709;-86
2022/07/02 13:59:26;;;;;;;;;;;;;;;;;;5064139;28;49166;-85
2022/07/02 14:02:00;;;;;;;;;;;;;;;;;;5069542;28;45942;-85
2022/07/02 14:04:26;;;;;;;;;;;;;;;;;;5073431;28;47318;-83
2022/07/02 14:06:53;;;;;;;;;;;;;;;;;;5070019;28;50079;-80
2022/07/02 14:09:19;;;;;;;;;;;;;;;;;;5079139;28;44669;-85
2022/07/02 14:11:45;;;;;;;;;;;;;;;;;;5075539;28;46055;-81
2022/07/02 14:14:12;;;;;;;;;;;;;;;;;;5079006;28;48394;-85
2022/07/02 14:16:38;;;;;;;;;;;;;;;;;;5079722;28;44537;-84
2022/07/02 14:19:04;;;;;;;;;;;;;;;;;;5077213;28;47605;-81
2022/07/02 14:21:31;;;;;;;;;;;;;;;;;;5072619;28;49641;-84
2022/07/02 14:23:57;;;;;;;;;;;;;;;;;;5076323;28;45598;-84
2022/07/02 14:26:30;;;;;;;;;;;;;;;;;;5066299;28;48922;-77
2022/07/02 14:28:57;;;;;;;;;;;;;;;;;;5064388;28;44730;-80
2022/07/02 14:31:23;;;;;;;;;;;;;;;;;;5054988;28;45759;-83
2022/07/02 14:33:49;;;;;;;;;;;;;;;;;;5062041;28;47496;-81
2022/07/02 14:36:16;;;;;;;;;;;;;;;;;;5063599;28;44822;-79
2022/07/02 14:38:43;;;;;;;;;;;;;;;;;;5063258;28;48627;-81
2022/07/02 14:43:54;;;;;;;;;;;;;;;;;;5061240;28;42892;-78
2022/07/02 14:48:53;;;;;;;;;;;;;;;;;;5063798;28;44406;-82
2022/07/02 14:51:21;;;;;;;;;;;;;;;;;;5063565;28;44537;-77
2022/07/02 14:53:54;;;;;;;;;;;;;;;;;;5060389;28;46013;-79
2022/07/02 14:56:24;;;;;;;;;;;;;;;;;;5062089;28;43956;-78
2022/07/02 14:58:51;;;;;;;;;;;;;;;;;;5065117;28;45294;-82
2022/07/02 15:01:17;;;;;;;;;;;;;;;;;;5063512;28;47972;-81
2022/07/02 15:03:43;;;;;;;;;;;;;;;;;;5064532;28;44147;-79
2022/07/02 15:06:10;;;;;;;;;;;;;;;;;;5059356;28;46438;-79
2022/07/02 15:08:36;;;;;;;;;;;;;;;;;;5058482;28;34619;-78
2022/07/02 15:11:02;;;;;;;;;;;;;;;;;;5056210;28;47536;-80
2022/07/02 15:16:15;;;;;;;;;;;;;;;;;;5024473;28;44168;-78
2022/07/02 15:18:41;;;;;;;;;;;;;;;;;;5059483;28;44421;-82
2022/07/02 15:21:08;;;;;;;;;;;;;;;;;;5057953;28;47024;-82
2022/07/02 15:23:34;;;;;;;;;;;;;;;;;;5057999;28;43600;-81
2022/07/02 15:26:00;;;;;;;;;;;;;;;;;;5060945;28;47390;-80
2022/07/02 15:28:26;;;;;;;;;;;;;;;;;;5062058;28;48104;-79
2022/07/02 15:30:53;;;;;;;;;;;;;;;;;;5062181;28;44864;-78
2022/07/02 15:33:19;;;;;;;;;;;;;;;;;;5061586;28;50166;-78
2022/07/02 15:35:45;;;;;;;;;;;;;;;;;;5061651;28;44543;-78
2022/07/02 15:38:12;;;;;;;;;;;;;;;;;;5059375;28;47438;-82
2022/07/02 15:40:39;;;;;;;;;;;;;;;;;;5055886;28;48052;-80
2022/07/02 15:43:05;;;;;;;;;;;;;;;;;;5063235;28;45679;-82
2022/07/02 15:45:31;;;;;;;;;;;;;;;;;;5061241;28;47548;-84
2022/07/02 15:47:58;;;;;;;;;;;;;;;;;;5062418;28;47090;-82
2022/07/02 15:50:24;;;;;;;;;;;;;;;;;;5061865;28;44372;-83
2022/07/02 15:52:50;;;;;;;;;;;;;;;;;;5062595;28;49396;-80
2022/07/02 15:55:18;;;;;;;;;;;;;;;;;;5059287;28;45260;-79
2022/07/02 15:57:46;;;;;;;;;;;;;;;;;;5060312;28;46356;-79
2022/07/02 16:00:12;;;;;;;;;;;;;;;;;;5063166;28;48160;-80
2022/07/02 16:02:39;;;;;;;;;;;;;;;;;;5049874;28;43607;-81
2022/07/02 16:05:06;;;;;;;;;;;;;;;;;;5071216;28;45663;-82
2022/07/02 16:07:32;;;;;;;;;;;;;;;;;;5063042;28;45923;-82
2022/07/02 16:09:58;;;;;;;;;;;;;;;;;;5068546;28;45206;-85
2022/07/02 16:12:24;;;;;;;;;;;;;;;;;;5066752;28;45644;-84
2022/07/02 16:14:51;;;;;;;;;;;;;;;;;;5074184;28;42361;-83
2022/07/02 16:17:17;;;;;;;;;;;;;;;;;;5067642;28;44506;-85
2022/07/02 16:19:43;;;;;;;;;;;;;;;;;;5070150;28;48007;-85
2022/07/02 16:22:09;;;;;;;;;;;;;;;;;;5064063;28;45611;-82
2022/07/02 16:24:36;;;;;;;;;;;;;;;;;;5069685;28;46323;-82
2022/07/02 16:27:02;;;;;;;;;;;;;;;;;;5066678;28;48143;-83
2022/07/02 16:29:28;;;;;;;;;;;;;;;;;;5076386;28;44574;-85
2022/07/02 16:31:55;;;;;;;;;;;;;;;;;;5072469;28;47219;-85
2022/07/02 16:34:21;;;;;;;;;;;;;;;;;;5072861;28;49703;-83
2022/07/02 16:36:48;;;;;;;;;;;;;;;;;;5061026;28;47752;-86
2022/07/02 16:39:17;;;;;;;;;;;;;;;;;;5070502;28;48132;-85
2022/07/02 16:41:43;;;;;;;;;;;;;;;;;;5076397;28;43434;-82
2022/07/02 16:44:09;;;;;;;;;;;;;;;;;;5073861;28;46001;-80
2022/07/02 16:46:36;;;;;;;;;;;;;;;;;;5076160;28;45754;-81
2022/07/02 16:49:05;;;;;;;;;;;;;;;;;;5066407;28;43001;-81
2022/07/02 16:51:36;;;;;;;;;;;;;;;;;;5052520;28;46132;-77
2022/07/02 16:54:02;;;;;;;;;;;;;;;;;;5048494;28;48464;-80
2022/07/02 16:56:33;;;;;;;;;;;;;;;;;;5053970;28;43539;-80
2022/07/02 16:58:59;;;;;;;;;;;;;;;;;;5058043;28;47055;-79
2022/07/02 17:01:25;;;;;;;;;;;;;;;;;;5068983;28;43636;-82
2022/07/02 17:03:52;;;;;;;;;;;;;;;;;;5071898;28;44743;-83